createdAt,value
2023-03-02T00:00:05.928Z,27.13
2023-03-02T00:04:05.942Z,25.00
2023-03-02T00:08:05.844Z,25.00
2023-03-02T00:12:05.841Z,29.98
2023-03-02T00:16:05.889Z,28.45
2023-03-02T00:20:05.762Z,27.56
2023-03-02T00:24:05.713Z,27.24
2023-03-02T00:28:05.703Z,28.50
2023-03-02T00:32:06.639Z,30.18
2023-03-02T00:36:05.666Z,27.50
2023-03-02T00:40:05.541Z,27.87
2023-03-02T00:44:05.543Z,28.05
2023-03-02T00:48:05.478Z,27.15
2023-03-02T00:52:05.458Z,28.08
2023-03-02T00:56:05.426Z,27.63
2023-03-02T01:00:05.422Z,27.14
2023-03-02T01:04:05.342Z,30.98
2023-03-02T01:08:05.345Z,27.71
2023-03-02T01:12:05.261Z,27.43
2023-03-02T01:16:05.429Z,26.99
2023-03-02T01:20:05.385Z,30.09
2023-03-02T01:24:05.365Z,26.95
2023-03-02T01:28:05.301Z,26.68
2023-03-02T01:32:05.287Z,28.47
2023-03-02T01:36:05.234Z,29.85
2023-03-02T01:40:05.203Z,30.83
2023-03-02T01:44:05.165Z,29.27
2023-03-02T01:48:05.129Z,28.35
2023-03-02T01:52:05.099Z,28.19
2023-03-02T01:56:05.064Z,27.69
2023-03-02T02:00:05.129Z,28.80
2023-03-02T02:04:05.421Z,25.87
2023-03-02T02:08:05.412Z,25.71
2023-03-02T02:12:05.643Z,27.97
2023-03-02T02:16:05.802Z,29.06
2023-03-02T02:20:05.885Z,30.26
2023-03-02T02:24:06.154Z,27.57
2023-03-02T02:28:06.221Z,29.45
2023-03-02T02:32:06.351Z,29.22
2023-03-02T02:36:06.367Z,30.91
2023-03-02T02:40:06.403Z,30.86
2023-03-02T02:44:06.341Z,28.40
2023-03-02T02:48:06.349Z,25.91
2023-03-02T02:52:06.468Z,29.36
2023-03-02T02:56:06.640Z,30.42
2023-03-02T03:00:06.681Z,28.97
2023-03-02T03:04:06.816Z,26.99
2023-03-02T03:08:06.854Z,29.54
2023-03-02T03:12:06.836Z,28.50
2023-03-02T03:16:06.908Z,30.52
2023-03-02T03:20:07.001Z,29.58
2023-03-02T03:24:06.963Z,28.44
2023-03-02T03:28:07.081Z,30.18
2023-03-02T03:32:07.164Z,29.27
2023-03-02T03:36:07.252Z,31.92
2023-03-02T03:40:07.283Z,29.76
2023-03-02T03:44:07.244Z,27.72
2023-03-02T03:48:07.228Z,27.09
2023-03-02T03:52:07.236Z,28.66
2023-03-02T03:56:07.215Z,30.62
2023-03-02T04:00:07.245Z,29.49
2023-03-02T04:04:07.308Z,30.10
2023-03-02T04:08:07.258Z,27.97
2023-03-02T04:12:07.245Z,29.66
2023-03-02T04:16:07.355Z,28.36
2023-03-02T04:20:07.275Z,29.13
2023-03-02T04:24:07.307Z,29.48
2023-03-02T04:28:07.338Z,27.90
2023-03-02T04:32:07.325Z,28.77
2023-03-02T04:36:07.299Z,28.45
2023-03-02T04:40:07.316Z,30.90
2023-03-02T04:44:07.350Z,29.04
2023-03-02T04:48:07.308Z,29.79
2023-03-02T04:52:07.365Z,29.96
2023-03-02T04:56:07.419Z,29.03
2023-03-02T05:00:07.411Z,32.51
2023-03-02T05:04:07.405Z,32.32
2023-03-02T05:08:07.384Z,31.57
2023-03-02T05:12:07.412Z,30.43
2023-03-02T05:16:07.510Z,30.84
2023-03-02T05:20:07.471Z,31.72
2023-03-02T05:24:07.432Z,34.33
2023-03-02T05:28:07.481Z,28.62
2023-03-02T05:32:07.550Z,27.93
2023-03-02T05:36:07.516Z,27.28
2023-03-02T05:40:07.552Z,28.13
2023-03-02T05:44:07.559Z,28.49
2023-03-02T05:48:07.594Z,28.99
2023-03-02T05:52:07.647Z,32.15
2023-03-02T05:56:07.745Z,29.94
2023-03-02T06:00:07.633Z,29.46
2023-03-02T06:04:07.646Z,30.24
2023-03-02T06:08:07.668Z,32.14
2023-03-02T06:12:07.669Z,29.82
2023-03-02T06:16:07.722Z,28.83
2023-03-02T06:20:07.725Z,32.48
2023-03-02T06:24:07.772Z,31.43
2023-03-02T06:28:07.786Z,31.86
2023-03-02T06:32:07.954Z,29.38
2023-03-02T06:36:08.064Z,34.39
2023-03-02T06:40:07.835Z,31.64
2023-03-02T06:44:08.746Z,53.15
2023-03-02T06:48:08.272Z,73.26
2023-03-02T06:52:08.264Z,92.22
2023-03-02T06:56:07.945Z,106.19
2023-03-02T07:00:08.275Z,123.10
2023-03-02T07:04:07.887Z,135.14
2023-03-02T07:08:08.767Z,149.86
2023-03-02T07:12:07.783Z,165.18
2023-03-02T07:16:07.769Z,171.21
2023-03-02T07:20:07.720Z,181.98
2023-03-02T07:24:07.682Z,186.11
2023-03-02T07:28:07.642Z,198.54
2023-03-02T07:32:07.679Z,204.68
2023-03-02T07:36:07.787Z,216.00
2023-03-02T07:40:07.539Z,226.29
2023-03-02T07:44:07.755Z,250.00
2023-03-02T07:48:07.641Z,244.98
2023-03-02T07:52:07.770Z,242.82
2023-03-02T07:56:07.599Z,233.95
2023-03-02T08:00:07.557Z,229.76
2023-03-02T08:04:07.505Z,231.49
2023-03-02T08:08:07.797Z,230.52
2023-03-02T08:12:07.490Z,232.35
2023-03-02T08:16:07.483Z,236.16
2023-03-02T08:20:07.391Z,234.36
2023-03-02T08:24:07.379Z,237.48
2023-03-02T08:28:07.345Z,247.63
2023-03-02T08:32:07.381Z,248.60
2023-03-02T08:36:07.365Z,246.01
2023-03-02T08:40:07.310Z,247.70
2023-03-02T08:44:07.307Z,244.24
2023-03-02T08:48:07.225Z,237.94
2023-03-02T08:52:07.199Z,232.72
2023-03-02T08:56:07.342Z,228.43
2023-03-02T09:00:07.828Z,220.28
2023-03-02T09:04:07.890Z,219.86
2023-03-02T09:08:07.452Z,210.54
2023-03-02T09:12:07.403Z,210.95
2023-03-02T09:16:07.420Z,210.87
2023-03-02T09:20:07.389Z,201.48
2023-03-02T09:24:07.280Z,191.40
2023-03-02T09:28:07.330Z,191.60
2023-03-02T09:32:07.352Z,192.75
2023-03-02T09:36:07.306Z,191.77
2023-03-02T09:40:07.175Z,153.48
2023-03-02T09:44:07.325Z,124.95
2023-03-02T09:48:07.313Z,81.26
2023-03-02T09:52:07.332Z,55.68
2023-03-02T09:56:07.021Z,39.33
2023-03-02T10:00:18.769Z,39.02
2023-03-02T10:04:08.474Z,39.32
2023-03-02T10:08:06.925Z,66.11
2023-03-02T10:12:06.874Z,73.12
2023-03-02T10:16:07.363Z,83.40
2023-03-02T10:20:06.989Z,95.02
2023-03-02T10:24:07.261Z,128.36
2023-03-02T10:28:07.343Z,116.74
2023-03-02T10:32:07.440Z,128.21
2023-03-02T10:36:07.836Z,133.76
2023-03-02T10:40:07.937Z,138.54
2023-03-02T10:44:07.819Z,154.26
2023-03-02T10:48:07.552Z,155.16
2023-03-02T10:52:07.608Z,150.87
2023-03-02T10:56:07.866Z,149.18
2023-03-02T11:00:07.890Z,145.05
2023-03-02T11:04:08.427Z,138.91
2023-03-02T11:08:08.204Z,137.30
2023-03-02T11:12:08.460Z,136.82
2023-03-02T11:16:08.706Z,136.99
2023-03-02T11:20:08.866Z,129.66
2023-03-02T11:24:10.503Z,125.92
2023-03-02T11:28:09.146Z,123.17
2023-03-02T11:32:09.450Z,128.89
2023-03-02T11:36:09.901Z,116.56
2023-03-02T11:40:09.506Z,121.59
2023-03-02T11:44:09.892Z,112.48
2023-03-02T11:48:09.439Z,112.34
2023-03-02T11:52:09.856Z,119.44
2023-03-02T11:56:09.356Z,116.19
2023-03-02T12:00:09.359Z,114.65
2023-03-02T12:04:09.400Z,103.98
2023-03-02T12:08:09.270Z,107.61
2023-03-02T12:12:09.268Z,110.88
2023-03-02T12:16:09.301Z,104.62
2023-03-02T12:20:09.448Z,100.51
2023-03-02T12:24:09.913Z,103.57
2023-03-02T12:28:09.904Z,96.47
2023-03-02T12:32:10.230Z,93.52
2023-03-02T12:36:10.381Z,92.88
2023-03-02T12:40:10.414Z,88.87
2023-03-02T12:44:10.964Z,93.39
2023-03-02T12:48:11.067Z,91.95
2023-03-02T12:52:11.114Z,83.35
2023-03-02T12:56:10.945Z,66.70
2023-03-02T13:00:10.920Z,78.33
2023-03-02T13:04:10.881Z,67.56
2023-03-02T13:08:10.801Z,74.13
2023-03-02T13:12:10.750Z,67.86
2023-03-02T13:16:10.757Z,64.45
2023-03-02T13:20:10.820Z,68.88
2023-03-02T13:24:12.409Z,69.29
2023-03-02T13:28:10.934Z,63.28
2023-03-02T13:32:10.952Z,65.50
2023-03-02T13:36:10.534Z,61.10
2023-03-02T13:40:10.608Z,63.97
2023-03-02T13:44:10.781Z,60.69
2023-03-02T13:48:10.912Z,36.40
2023-03-02T13:52:11.058Z,47.05
2023-03-02T13:56:11.203Z,25.38
2023-03-02T14:00:11.361Z,18.88
2023-03-02T14:04:11.700Z,45.91
2023-03-02T14:08:11.739Z,111.29
2023-03-02T14:12:11.914Z,101.16
2023-03-02T14:16:12.023Z,125.06
2023-03-02T14:20:12.433Z,134.66
2023-03-02T14:24:12.271Z,145.36
2023-03-02T14:28:12.355Z,147.11
2023-03-02T14:32:12.463Z,158.78
2023-03-02T14:36:12.389Z,159.09
2023-03-02T14:40:12.395Z,161.37
2023-03-02T14:44:12.551Z,159.10
2023-03-02T14:48:12.531Z,165.36
2023-03-02T14:52:12.547Z,161.38
2023-03-02T14:56:12.461Z,170.72
2023-03-02T15:00:12.524Z,166.81
2023-03-02T15:04:12.415Z,163.81
2023-03-02T15:08:12.435Z,167.95
2023-03-02T15:12:12.439Z,169.76
2023-03-02T15:16:12.354Z,167.49
2023-03-02T15:20:12.456Z,165.55
2023-03-02T15:24:12.309Z,164.08
2023-03-02T15:28:12.194Z,155.69
2023-03-02T15:32:12.339Z,157.07
2023-03-02T15:36:12.429Z,158.83
2023-03-02T15:40:12.421Z,157.32
2023-03-02T15:44:12.471Z,155.51
2023-03-02T15:48:13.626Z,161.34
2023-03-02T15:52:12.753Z,157.36
2023-03-02T15:56:12.882Z,158.22
2023-03-02T16:00:13.027Z,157.46
2023-03-02T16:04:13.195Z,156.63
2023-03-02T16:08:13.334Z,153.48
2023-03-02T16:12:13.486Z,157.54
2023-03-02T16:16:13.656Z,156.17
2023-03-02T16:20:13.650Z,152.48
2023-03-02T16:24:13.675Z,156.94
2023-03-02T16:28:13.773Z,156.87
2023-03-02T16:32:13.910Z,152.22
2023-03-02T16:36:13.983Z,153.35
2023-03-02T16:40:13.833Z,152.00
2023-03-02T16:44:13.857Z,152.59
2023-03-02T16:48:13.901Z,151.79
2023-03-02T16:52:13.908Z,152.20
2023-03-02T16:56:14.010Z,150.53
2023-03-02T17:00:14.592Z,151.11
2023-03-02T17:04:14.100Z,151.13
2023-03-02T17:08:14.124Z,145.86
2023-03-02T17:12:14.193Z,152.50
2023-03-02T17:16:14.298Z,152.59
2023-03-02T17:24:17.564Z,25.00
2023-03-02T17:28:17.530Z,29.99
2023-03-02T17:32:17.651Z,28.72
2023-03-02T17:36:17.450Z,28.87
2023-03-02T17:40:17.405Z,32.71
2023-03-02T17:44:17.371Z,30.24
2023-03-02T17:48:17.371Z,30.20
2023-03-02T17:52:17.300Z,33.60
2023-03-02T17:56:17.270Z,32.07
2023-03-02T18:00:17.203Z,30.75
2023-03-02T18:04:17.225Z,28.19
2023-03-02T18:08:17.180Z,25.48
2023-03-02T18:12:17.113Z,26.38
2023-03-02T18:16:17.156Z,25.00
2023-03-02T18:20:17.036Z,32.25
2023-03-02T18:24:16.984Z,34.57
2023-03-02T18:28:17.001Z,29.64
2023-03-02T18:32:16.980Z,29.42
2023-03-02T18:36:16.903Z,28.09
2023-03-02T18:40:16.880Z,28.03
2023-03-02T18:44:16.821Z,30.56
2023-03-02T18:48:16.798Z,31.30
2023-03-02T18:52:16.752Z,29.08
2023-03-02T18:56:16.751Z,26.78
2023-03-02T19:00:16.681Z,27.77
2023-03-02T19:04:16.641Z,28.75
2023-03-02T19:08:16.592Z,30.58
2023-03-02T19:12:16.592Z,25.07
2023-03-02T19:16:18.363Z,27.97
2023-03-02T19:20:16.528Z,32.73
2023-03-02T19:24:16.635Z,29.58
2023-03-02T19:28:16.723Z,30.00
2023-03-02T19:32:16.860Z,29.83
2023-03-02T19:36:16.921Z,29.39
2023-03-02T19:40:16.972Z,30.08
2023-03-02T19:44:17.096Z,26.58
2023-03-02T19:48:17.179Z,26.71
2023-03-02T19:52:17.271Z,29.11
2023-03-02T19:56:17.379Z,29.73
2023-03-02T20:00:17.461Z,30.05
2023-03-02T20:04:17.626Z,27.52
2023-03-02T20:08:17.671Z,25.49
2023-03-02T20:12:17.773Z,30.87
2023-03-02T20:16:17.857Z,26.73
2023-03-02T20:20:17.928Z,27.22
2023-03-02T20:24:18.062Z,30.63
2023-03-02T20:28:18.145Z,30.18
2023-03-02T20:32:18.333Z,25.93
2023-03-02T20:36:18.402Z,27.28
2023-03-02T20:40:18.517Z,26.44
2023-03-02T20:44:18.615Z,26.01
2023-03-02T20:48:18.843Z,25.00
2023-03-02T20:52:18.869Z,29.81
2023-03-02T20:56:19.002Z,27.69
2023-03-02T21:00:19.130Z,29.85
2023-03-02T21:04:19.303Z,25.51
2023-03-02T21:08:19.367Z,25.80
2023-03-02T21:12:19.530Z,25.00
2023-03-02T21:16:19.606Z,29.73
2023-03-02T21:20:19.809Z,26.94
2023-03-02T21:24:19.929Z,26.56
2023-03-02T21:28:20.105Z,28.99
2023-03-02T21:32:20.269Z,29.55
2023-03-02T21:36:20.430Z,27.88
2023-03-02T21:40:20.597Z,28.57
2023-03-02T21:44:20.754Z,28.22
2023-03-02T21:48:22.878Z,26.05
2023-03-02T21:52:21.131Z,28.07
2023-03-02T21:56:21.326Z,29.87
2023-03-02T22:00:21.544Z,28.54
2023-03-02T22:04:21.730Z,30.49
2023-03-02T22:08:21.925Z,30.17
2023-03-02T22:12:22.195Z,29.41
2023-03-02T22:16:22.436Z,26.63
2023-03-02T22:20:22.124Z,29.67
2023-03-02T22:24:22.052Z,30.16
2023-03-02T22:28:21.978Z,27.62
2023-03-02T22:32:22.005Z,27.13
2023-03-02T22:36:21.939Z,28.21
2023-03-02T22:40:21.895Z,27.52
2023-03-02T22:44:21.833Z,25.27
2023-03-02T22:48:21.844Z,27.69
2023-03-02T22:52:21.818Z,32.29
2023-03-02T22:56:21.778Z,30.16
2023-03-02T23:00:21.733Z,28.71
2023-03-02T23:04:21.727Z,26.16
2023-03-02T23:08:21.668Z,30.27
2023-03-02T23:12:21.606Z,28.52
2023-03-02T23:16:21.666Z,29.93
2023-03-02T23:20:21.522Z,28.98
2023-03-02T23:24:21.519Z,26.78
2023-03-02T23:28:21.568Z,28.08
2023-03-02T23:32:21.803Z,29.87
2023-03-02T23:36:21.857Z,30.93
2023-03-02T23:40:22.008Z,28.49
2023-03-02T23:44:22.171Z,26.40
2023-03-02T23:48:22.287Z,26.74
2023-03-02T23:52:22.502Z,29.80
2023-03-02T23:56:22.437Z,30.97
